Time,TemperatureF,DewpointF,PressureIn,WindDirection,WindDirectionDegrees,WindSpeedMPH,WindSpeedGustMPH,Humidity,HourlyPrecipIn,Conditions,Clouds,dailyrainin,SoftwareType,DateUTC
2013-08-29 00:10:00,69.4,68.8,29.79,WSW,247,2.2,-999.0,98,-99.99,,,0.00,Acu-Link.com,2013-08-29 04:10:00,
2013-08-29 00:25:00,69.1,68.5,29.78,WSW,247,2.7,-999.0,98,-99.99,,,0.00,Acu-Link.com,2013-08-29 04:25:00,
2013-08-29 00:40:00,69.1,68.5,29.77,ENE,67,1.1,-999.0,98,-99.99,,,0.00,Acu-Link.com,2013-08-29 04:40:00,
2013-08-29 00:56:00,69.3,68.7,29.78,West,270,2.2,-999.0,98,-99.99,,,0.00,Acu-Link.com,2013-08-29 04:56:00,
2013-08-29 01:11:00,68.7,68.1,29.77,SSE,157,0.0,-999.0,98,-99.99,,,0.00,Acu-Link.com,2013-08-29 05:11:00,
2013-08-29 01:26:00,68.9,68.3,29.77,South,180,2.7,-999.0,98,-99.99,,,0.00,Acu-Link.com,2013-08-29 05:26:00,
2013-08-29 01:41:00,69.1,68.5,29.77,SSE,157,2.7,-999.0,98,-99.99,,,0.00,Acu-Link.com,2013-08-29 05:41:00,
2013-08-29 01:56:00,69.4,68.8,29.77,SE,135,2.7,-999.0,98,-99.99,,,0.00,Acu-Link.com,2013-08-29 05:56:00,
2013-08-29 02:12:00,69.1,68.5,29.77,West,270,0.0,-999.0,98,-99.99,,,0.00,Acu-Link.com,2013-08-29 06:12:00,
2013-08-29 02:27:00,70.5,69.9,29.77,SSE,157,1.7,-999.0,98,-99.99,,,0.00,Acu-Link.com,2013-08-29 06:27:00,
2013-08-29 02:42:00,71.2,70.6,29.76,East,90,3.2,-999.0,98,-99.99,,,0.00,Acu-Link.com,2013-08-29 06:42:00,
2013-08-29 02:57:00,72.1,71.5,29.77,North,0,4.2,-999.0,98,-99.99,,,0.00,Acu-Link.com,2013-08-29 06:57:00,
2013-08-29 03:12:00,73.0,72.4,29.76,SW,225,2.7,-999.0,98,-99.99,,,0.00,Acu-Link.com,2013-08-29 07:12:00,
2013-08-29 03:28:00,72.1,71.5,29.77,ESE,112,3.7,-999.0,98,-99.99,,,0.00,Acu-Link.com,2013-08-29 07:28:00,
2013-08-29 03:43:00,72.5,71.9,29.76,NE,45,2.2,-999.0,98,-99.99,,,0.00,Acu-Link.com,2013-08-29 07:43:00,
2013-08-29 03:58:00,73.0,72.4,29.76,SSE,157,3.2,-999.0,98,-99.99,,,0.00,Acu-Link.com,2013-08-29 07:58:00,
2013-08-29 04:14:00,73.2,72.6,29.76,South,180,2.2,-999.0,98,-99.99,,,0.00,Acu-Link.com,2013-08-29 08:14:00,
2013-08-29 04:29:00,73.0,72.4,29.76,ESE,112,3.7,-999.0,98,-99.99,,,0.00,Acu-Link.com,2013-08-29 08:29:00,
2013-08-29 04:44:00,73.2,72.6,29.76,SE,135,3.2,-999.0,98,-99.99,,,0.00,Acu-Link.com,2013-08-29 08:44:00,
2013-08-29 04:59:00,73.0,72.4,29.76,West,270,0.0,-999.0,98,-99.99,,,0.00,Acu-Link.com,2013-08-29 08:59:00,
2013-08-29 05:14:00,73.0,72.4,29.76,SSE,157,1.1,-999.0,98,-99.99,,,0.00,Acu-Link.com,2013-08-29 09:14:00,
2013-08-29 05:29:00,73.4,72.8,29.76,NNE,22,0.0,-999.0,98,-99.99,,,0.00,Acu-Link.com,2013-08-29 09:29:00,
2013-08-29 05:44:00,73.6,73.0,29.76,ENE,67,4.7,-999.0,98,-99.99,,,0.00,Acu-Link.com,2013-08-29 09:44:00,
2013-08-29 06:00:00,73.2,72.6,29.76,SSE,157,1.7,-999.0,98,-99.99,,,0.00,Acu-Link.com,2013-08-29 10:00:00,
2013-08-29 06:15:00,73.4,72.8,29.76,SSE,157,1.1,-999.0,98,-99.99,,,0.00,Acu-Link.com,2013-08-29 10:15:00,
2013-08-29 06:30:00,72.9,72.3,29.76,ESE,112,0.0,-999.0,98,-99.99,,,0.00,Acu-Link.com,2013-08-29 10:30:00,
2013-08-29 06:45:00,72.9,72.3,29.77,ESE,112,0.0,-999.0,98,-99.99,,,0.00,Acu-Link.com,2013-08-29 10:45:00,
2013-08-29 07:00:00,73.2,72.6,29.77,SE,135,0.0,-999.0,98,-99.99,,,0.00,Acu-Link.com,2013-08-29 11:00:00,
2013-08-29 07:15:00,73.4,72.8,29.78,NNE,22,5.3,-999.0,98,-99.99,,,0.00,Acu-Link.com,2013-08-29 11:15:00,
2013-08-29 07:31:00,73.2,72.6,29.79,WNW,292,0.0,-999.0,98,-99.99,,,0.00,Acu-Link.com,2013-08-29 11:31:00,
2013-08-29 07:46:00,73.2,72.6,29.80,SSE,157,0.0,-999.0,98,-99.99,,,0.00,Acu-Link.com,2013-08-29 11:46:00,
2013-08-29 08:01:00,73.4,72.8,29.80,NE,45,0.0,-999.0,98,-99.99,,,0.00,Acu-Link.com,2013-08-29 12:01:00,
2013-08-29 08:16:00,73.4,72.8,29.80,West,270,0.0,-999.0,98,-99.99,,,0.00,Acu-Link.com,2013-08-29 12:16:00,
2013-08-29 08:31:00,74.1,73.5,29.81,NNE,22,2.2,-999.0,98,-99.99,,,0.00,Acu-Link.com,2013-08-29 12:31:00,
2013-08-29 08:47:00,74.5,73.9,29.81,SSW,202,2.7,-999.0,98,-99.99,,,0.00,Acu-Link.com,2013-08-29 12:47:00,
2013-08-29 09:02:00,75.0,74.4,29.81,ENE,67,2.2,-999.0,98,-99.99,,,0.00,Acu-Link.com,2013-08-29 13:02:00,
2013-08-29 09:17:00,75.6,75.0,29.81,ENE,67,1.7,-999.0,98,-99.99,,,0.00,Acu-Link.com,2013-08-29 13:17:00,
2013-08-29 09:32:00,75.7,75.1,29.82,NE,45,0.0,-999.0,98,-99.99,,,0.00,Acu-Link.com,2013-08-29 13:32:00,
2013-08-29 09:48:00,77.0,76.4,29.82,SE,135,0.0,-999.0,98,-99.99,,,0.00,Acu-Link.com,2013-08-29 13:48:00,
2013-08-29 10:03:00,79.2,78.6,29.82,NNE,22,1.1,-999.0,98,-99.99,,,0.00,Acu-Link.com,2013-08-29 14:03:00,
2013-08-29 10:18:00,81.7,81.1,29.82,SE,135,1.1,-999.0,98,-99.99,,,0.00,Acu-Link.com,2013-08-29 14:18:00,
2013-08-29 10:33:00,82.9,82.3,29.82,SSE,157,2.2,-999.0,98,-99.99,,,0.00,Acu-Link.com,2013-08-29 14:33:00,
2013-08-29 10:48:00,85.5,84.9,29.82,SE,135,1.1,-999.0,98,-99.99,,,0.00,Acu-Link.com,2013-08-29 14:48:00,
2013-08-29 11:04:00,84.6,84.0,29.82,ENE,67,2.2,-999.0,98,-99.99,,,0.00,Acu-Link.com,2013-08-29 15:04:00,
2013-08-29 11:19:00,84.6,84.0,29.82,NE,45,2.7,-999.0,98,-99.99,,,0.00,Acu-Link.com,2013-08-29 15:19:00,
2013-08-29 11:34:00,85.5,84.9,29.81,SE,135,2.2,-999.0,98,-99.99,,,0.00,Acu-Link.com,2013-08-29 15:34:00,
2013-08-29 11:50:00,83.5,82.9,29.81,ENE,67,0.0,-999.0,98,-99.99,,,0.00,Acu-Link.com,2013-08-29 15:50:00,
2013-08-29 12:05:00,87.4,86.8,29.81,East,90,1.7,-999.0,98,-99.99,,,0.00,Acu-Link.com,2013-08-29 16:05:00,
2013-08-29 12:20:00,85.6,85.0,29.81,NE,45,1.1,-999.0,98,-99.99,,,0.00,Acu-Link.com,2013-08-29 16:20:00,
2013-08-29 12:35:00,84.6,84.0,29.80,SE,135,1.7,-999.0,98,-99.99,,,0.00,Acu-Link.com,2013-08-29 16:35:00,
2013-08-29 12:50:00,88.5,87.9,29.80,North,0,3.2,-999.0,98,-99.99,,,0.00,Acu-Link.com,2013-08-29 16:50:00,
2013-08-29 13:06:00,88.3,87.3,29.80,SSE,157,2.2,-999.0,97,-99.99,,,0.00,Acu-Link.com,2013-08-29 17:06:00,
2013-08-29 13:21:00,88.0,87.0,29.79,SW,225,2.7,-999.0,97,-99.99,,,0.00,Acu-Link.com,2013-08-29 17:21:00,
2013-08-29 13:36:00,88.9,86.6,29.79,East,90,4.2,-999.0,93,-99.99,,,0.00,Acu-Link.com,2013-08-29 17:36:00,
2013-08-29 13:51:00,88.3,86.3,29.80,ESE,112,4.2,-999.0,94,-99.99,,,0.00,Acu-Link.com,2013-08-29 17:51:00,
2013-08-29 14:06:00,89.1,87.1,29.79,ESE,112,4.2,-999.0,94,-99.99,,,0.00,Acu-Link.com,2013-08-29 18:06:00,
2013-08-29 14:22:00,89.4,87.1,29.79,SSE,157,3.2,-999.0,93,-99.99,,,0.00,Acu-Link.com,2013-08-29 18:22:00,
2013-08-29 14:37:00,88.3,86.3,29.78,NE,45,2.7,-999.0,94,-99.99,,,0.00,Acu-Link.com,2013-08-29 18:37:00,
2013-08-29 14:52:00,88.7,85.4,29.78,ESE,112,3.2,-999.0,90,-99.99,,,0.00,Acu-Link.com,2013-08-29 18:52:00,
2013-08-29 15:07:00,89.2,86.2,29.77,NE,45,2.7,-999.0,91,-99.99,,,0.00,Acu-Link.com,2013-08-29 19:07:00,
2013-08-29 15:22:00,88.9,85.6,29.77,North,0,2.7,-999.0,90,-99.99,,,0.00,Acu-Link.com,2013-08-29 19:22:00,
2013-08-29 15:38:00,89.1,86.8,29.76,SSE,157,0.0,-999.0,93,-99.99,,,0.00,Acu-Link.com,2013-08-29 19:38:00,
2013-08-29 15:53:00,89.6,85.6,29.76,SSE,157,3.2,-999.0,88,-99.99,,,0.00,Acu-Link.com,2013-08-29 19:53:00,
2013-08-29 16:08:00,89.2,85.2,29.76,East,90,3.2,-999.0,88,-99.99,,,0.00,Acu-Link.com,2013-08-29 20:08:00,
2013-08-29 16:23:00,90.9,87.2,29.76,ESE,112,2.2,-999.0,89,-99.99,,,0.00,Acu-Link.com,2013-08-29 20:23:00,
2013-08-29 16:38:00,89.2,85.5,29.76,NE,45,1.7,-999.0,89,-99.99,,,0.00,Acu-Link.com,2013-08-29 20:38:00,
2013-08-29 16:54:00,88.0,84.7,29.76,NE,45,2.7,-999.0,90,-99.99,,,0.00,Acu-Link.com,2013-08-29 20:54:00,
2013-08-29 17:09:00,87.4,83.4,29.76,SSE,157,1.7,-999.0,88,-99.99,,,0.00,Acu-Link.com,2013-08-29 21:09:00,
2013-08-29 17:24:00,87.1,85.2,29.76,SE,135,0.0,-999.0,94,-99.99,,,0.00,Acu-Link.com,2013-08-29 21:24:00,
2013-08-29 17:40:00,85.3,84.0,29.76,SE,135,2.2,-999.0,96,-99.99,,,0.00,Acu-Link.com,2013-08-29 21:40:00,
2013-08-29 17:55:00,86.5,85.2,29.75,SSE,157,1.1,-999.0,96,-99.99,,,0.00,Acu-Link.com,2013-08-29 21:55:00,
2013-08-29 18:10:00,85.5,83.2,29.75,ESE,112,0.0,-999.0,93,-99.99,,,0.00,Acu-Link.com,2013-08-29 22:10:00,
2013-08-29 18:25:00,85.1,83.2,29.75,ESE,112,1.7,-999.0,94,-99.99,,,0.00,Acu-Link.com,2013-08-29 22:25:00,
2013-08-29 18:40:00,85.1,84.5,29.74,SE,135,0.0,-999.0,98,-99.99,,,0.00,Acu-Link.com,2013-08-29 22:40:00,
2013-08-29 18:56:00,82.9,82.3,29.75,SE,135,0.0,-999.0,98,-99.99,,,0.00,Acu-Link.com,2013-08-29 22:56:00,
2013-08-29 19:11:00,81.3,80.7,29.75,SSE,157,0.0,-999.0,98,-99.99,,,0.00,Acu-Link.com,2013-08-29 23:11:00,
2013-08-29 19:26:00,79.5,78.9,29.75,West,270,0.0,-999.0,98,-99.99,,,0.00,Acu-Link.com,2013-08-29 23:26:00,
2013-08-29 19:41:00,77.7,77.1,29.76,South,180,0.0,-999.0,98,-99.99,,,0.00,Acu-Link.com,2013-08-29 23:41:00,
2013-08-29 19:57:00,76.5,75.9,29.76,SSW,202,0.0,-999.0,98,-99.99,,,0.00,Acu-Link.com,2013-08-29 23:57:00,
2013-08-29 20:12:00,75.4,74.8,29.77,SE,135,0.0,-999.0,98,-99.99,,,0.00,Acu-Link.com,2013-08-30 00:12:00,
2013-08-29 20:27:00,74.5,73.9,29.77,SE,135,0.0,-999.0,98,-99.99,,,0.00,Acu-Link.com,2013-08-30 00:27:00,
2013-08-29 20:42:00,73.8,73.2,29.78,NE,45,0.0,-999.0,98,-99.99,,,0.00,Acu-Link.com,2013-08-30 00:42:00,
2013-08-29 20:57:00,74.5,73.9,29.78,ESE,112,2.7,-999.0,98,-99.99,,,0.00,Acu-Link.com,2013-08-30 00:57:00,
2013-08-29 21:13:00,75.6,75.0,29.79,ENE,67,1.7,-999.0,98,-99.99,,,0.00,Acu-Link.com,2013-08-30 01:13:00,
2013-08-29 21:28:00,75.7,75.1,29.79,NE,45,0.0,-999.0,98,-99.99,,,0.00,Acu-Link.com,2013-08-30 01:28:00,
2013-08-29 21:43:00,76.5,75.9,29.78,North,0,1.7,-999.0,98,-99.99,,,0.00,Acu-Link.com,2013-08-30 01:43:00,
2013-08-29 21:58:00,76.1,75.5,29.79,South,180,1.1,-999.0,98,-99.99,,,0.00,Acu-Link.com,2013-08-30 01:58:00,
2013-08-29 22:14:00,75.6,75.0,29.80,SW,225,0.0,-999.0,98,-99.99,,,0.00,Acu-Link.com,2013-08-30 02:14:00,
2013-08-29 22:29:00,75.6,75.0,29.80,NE,45,0.0,-999.0,98,-99.99,,,0.00,Acu-Link.com,2013-08-30 02:29:00,
2013-08-29 22:44:00,75.6,75.0,29.80,ENE,67,0.0,-999.0,98,-99.99,,,0.00,Acu-Link.com,2013-08-30 02:44:00,
2013-08-29 22:59:00,75.4,74.8,29.81,NNW,337,0.0,-999.0,98,-99.99,,,0.00,Acu-Link.com,2013-08-30 02:59:00,
2013-08-29 23:15:00,75.0,74.4,29.81,NNW,337,1.1,-999.0,98,-99.99,,,0.00,Acu-Link.com,2013-08-30 03:15:00,
2013-08-29 23:30:00,74.5,73.9,29.80,SSE,157,0.0,-999.0,98,-99.99,,,0.00,Acu-Link.com,2013-08-30 03:30:00,
2013-08-29 23:45:00,73.9,73.3,29.81,SSE,157,0.0,-999.0,98,-99.99,,,0.00,Acu-Link.com,2013-08-30 03:45:00,